Terminal Aerodrome Forecast
Issued by NWS

Current Version | Previous Version | Text Only | Print | Product List | Glossary On
Versions: 1 2 3 4 5 6 7 8 9 10 11 12 13 14 15
000
FTUS45 KREV 210500
TAFRNO
TAF
KRNO 210520Z 2106/2206 VRB03KT P6SM SCT200
     FM211900 22018G27KT P6SM BKN120 OVC180
     FM220400 24010G18KT P6SM BKN100 BKN180=

USA.gov is the U.S. government's official web portal to all federal, state and local government web resources and services.